<?xml version="1.0" encoding="UTF-8"?>
<gpx version="1.1" creator="2bulu-scraper" xmlns="http://www.topografix.com/GPX/1/1">
  <metadata><name>泸州古蔺汆洞沟</name><desc>source: 2bulu.com trackId=83544232; exported 2026-09-01T14:46:22.553Z</desc>
    <bounds minlat="28.010401" minlon="105.6138133" maxlat="28.0229399" maxlon="105.6241754"/>
    <link href="https://www.2bulu.com/track/t-VcnfzLMKHGXp%252FR2KBg5Tzw%253D%253D.htm"><text>2bulu 源页面</text></link>
  </metadata>
  <wpt lat="28.0195183" lon="105.6138133"><ele>1199</ele><name>
        
        
        </name></wpt>
  <wpt lat="28.0192495" lon="105.6162498"><ele>1168</ele><name>
        
        
        </name></wpt>
  <wpt lat="28.0193296" lon="105.6163032"><ele>1166</ele><name>
        
        
        </name></wpt>
  <wpt lat="28.0193194" lon="105.6185923"><ele>1156</ele><name>
        
        
        </name></wpt>
  <wpt lat="28.016965" lon="105.6209242"><ele>1157</ele><name>
        
        
        </name></wpt>
  <wpt lat="28.0163105" lon="105.6197735"><ele>1150</ele><name>
        
        
        </name></wpt>
  <wpt lat="28.0156736" lon="105.6192738"><ele>1163</ele><name>
        
        
        </name></wpt>
  <wpt lat="28.0140807" lon="105.6180431"><ele>1171</ele><name>
        
        
        </name></wpt>
  <wpt lat="28.01389" lon="105.6180033"><ele>1176</ele><name>
        
        
        </name></wpt>
  <wpt lat="28.0133536" lon="105.6179695"><ele>1176</ele><name>
        
        
        </name></wpt>
  <wpt lat="28.0105879" lon="105.6190591"><ele>1170</ele><name>
        
        
        </name></wpt>
  <wpt lat="28.0104981" lon="105.6198349"><ele>1169</ele><name>
        
        
        </name></wpt>
  <wpt lat="28.0131168" lon="105.6181668"><ele>1152</ele><name>
        
        
        </name></wpt>
  <wpt lat="28.017689" lon="105.6219944"><ele>1071</ele><name>
        
        
        </name></wpt>
  <wpt lat="28.0211396" lon="105.6235627"><ele>1005</ele><name>
        
        
        </name></wpt>
  <wpt lat="28.0226211" lon="105.6223997"><ele>1039</ele><name>
        
        
        </name></wpt>
  <wpt lat="28.0217472" lon="105.6207911"><ele>1050</ele><name>
        
        
        </name></wpt>
  <wpt lat="28.0192707" lon="105.6141553"><ele>1190</ele><name>
        
        
        </name></wpt>
  <trk><name>泸州古蔺汆洞沟</name>
      <trkseg>
        <trkpt lat="28.0195183" lon="105.6138133"><ele>1198.9</ele><time>2026-05-02T22:11:38.000Z</time></trkpt>
        <trkpt lat="28.01944" lon="105.6138867"><ele>1198.9</ele><time>2026-05-02T22:12:04.000Z</time></trkpt>
        <trkpt lat="28.0193673" lon="105.6139685"><ele>1199.29</ele><time>2026-05-02T22:12:16.000Z</time></trkpt>
        <trkpt lat="28.0193265" lon="105.614062"><ele>1199.16</ele><time>2026-05-02T22:12:38.000Z</time></trkpt>
        <trkpt lat="28.0192743" lon="105.6141569"><ele>1197.97</ele><time>2026-05-02T22:12:48.000Z</time></trkpt>
        <trkpt lat="28.0192246" lon="105.6142616"><ele>1196.65</ele><time>2026-05-02T22:13:02.000Z</time></trkpt>
        <trkpt lat="28.0191929" lon="105.6143721"><ele>1194.22</ele><time>2026-05-02T22:13:14.000Z</time></trkpt>
        <trkpt lat="28.019165" lon="105.6144738"><ele>1192.02</ele><time>2026-05-02T22:13:26.000Z</time></trkpt>
        <trkpt lat="28.0191498" lon="105.6145841"><ele>1190.63</ele><time>2026-05-02T22:13:38.000Z</time></trkpt>
        <trkpt lat="28.0191434" lon="105.6146888"><ele>1189.67</ele><time>2026-05-02T22:13:50.000Z</time></trkpt>
        <trkpt lat="28.0191467" lon="105.6148036"><ele>1188.91</ele><time>2026-05-02T22:14:02.000Z</time></trkpt>
        <trkpt lat="28.0191736" lon="105.6149184"><ele>1188.05</ele><time>2026-05-02T22:14:16.000Z</time></trkpt>
        <trkpt lat="28.0192081" lon="105.6150326"><ele>1187.17</ele><time>2026-05-02T22:14:30.000Z</time></trkpt>
        <trkpt lat="28.0192435" lon="105.6151414"><ele>1186.19</ele><time>2026-05-02T22:14:40.000Z</time></trkpt>
        <trkpt lat="28.0192816" lon="105.6152406"><ele>1184.9</ele><time>2026-05-02T22:14:48.000Z</time></trkpt>
        <trkpt lat="28.019291" lon="105.6153553"><ele>1183.48</ele><time>2026-05-02T22:14:56.000Z</time></trkpt>
        <trkpt lat="28.0192831" lon="105.6154738"><ele>1181.98</ele><time>2026-05-02T22:15:04.000Z</time></trkpt>
        <trkpt lat="28.0192815" lon="105.6155218"><ele>1180.14</ele><time>2026-05-02T22:15:14.000Z</time></trkpt>
        <trkpt lat="28.0192787" lon="105.6156112"><ele>1178.7</ele><time>2026-05-02T22:15:24.000Z</time></trkpt>
        <trkpt lat="28.0192735" lon="105.6157256"><ele>1177.63</ele><time>2026-05-02T22:15:32.000Z</time></trkpt>
        <trkpt lat="28.0192703" lon="105.6158425"><ele>1176.5</ele><time>2026-05-02T22:15:40.000Z</time></trkpt>
        <trkpt lat="28.0192557" lon="105.6159513"><ele>1175.12</ele><time>2026-05-02T22:15:52.000Z</time></trkpt>
        <trkpt lat="28.0192343" lon="105.6160561"><ele>1173.91</ele><time>2026-05-02T22:16:02.000Z</time></trkpt>
        <trkpt lat="28.0192112" lon="105.6161594"><ele>1172.83</ele><time>2026-05-02T22:16:12.000Z</time></trkpt>
        <trkpt lat="28.0192495" lon="105.6162498"><ele>1171.01</ele><time>2026-05-02T22:16:24.000Z</time></trkpt>
        <trkpt lat="28.0193296" lon="105.6163032"><ele>1169.54</ele><time>2026-05-02T22:16:42.000Z</time></trkpt>
        <trkpt lat="28.0193766" lon="105.6163901"><ele>1168.19</ele><time>2026-05-02T22:17:00.000Z</time></trkpt>
        <trkpt lat="28.0193939" lon="105.6164892"><ele>1166.65</ele><time>2026-05-02T22:17:10.000Z</time></trkpt>
        <trkpt lat="28.0194039" lon="105.6165936"><ele>1165.08</ele><time>2026-05-02T22:17:20.000Z</time></trkpt>
        <trkpt lat="28.0194" lon="105.6167001"><ele>1163.88</ele><time>2026-05-02T22:17:34.000Z</time></trkpt>
        <trkpt lat="28.0194274" lon="105.6168104"><ele>1162.73</ele><time>2026-05-02T22:17:57.000Z</time></trkpt>
        <trkpt lat="28.0194514" lon="105.6169252"><ele>1160.44</ele><time>2026-05-02T22:18:17.000Z</time></trkpt>
        <trkpt lat="28.019473" lon="105.6170325"><ele>1159.9</ele><time>2026-05-02T22:18:33.000Z</time></trkpt>
        <trkpt lat="28.0194873" lon="105.6171428"><ele>1160.42</ele><time>2026-05-02T22:18:47.000Z</time></trkpt>
        <trkpt lat="28.0195251" lon="105.6172455"><ele>1161.49</ele><time>2026-05-02T22:18:57.000Z</time></trkpt>
        <trkpt lat="28.0195669" lon="105.6173492"><ele>1162.61</ele><time>2026-05-02T22:19:09.000Z</time></trkpt>
        <trkpt lat="28.0196165" lon="105.617446"><ele>1163.6</ele><time>2026-05-02T22:19:21.000Z</time></trkpt>
        <trkpt lat="28.0196545" lon="105.6175418"><ele>1164.76</ele><time>2026-05-02T22:19:31.000Z</time></trkpt>
        <trkpt lat="28.0197098" lon="105.6176351"><ele>1165.94</ele><time>2026-05-02T22:19:41.000Z</time></trkpt>
        <trkpt lat="28.0197292" lon="105.6177416"><ele>1167.56</ele><time>2026-05-02T22:19:53.000Z</time></trkpt>
        <trkpt lat="28.0196694" lon="105.6178093"><ele>1167.96</ele><time>2026-05-02T22:20:05.000Z</time></trkpt>
        <trkpt lat="28.0195697" lon="105.617811"><ele>1167.51</ele><time>2026-05-02T22:20:19.000Z</time></trkpt>
        <trkpt lat="28.019448" lon="105.6177917"><ele>1166.77</ele><time>2026-05-02T22:20:27.000Z</time></trkpt>
        <trkpt lat="28.0193345" lon="105.6178018"><ele>1165.28</ele><time>2026-05-02T22:20:39.000Z</time></trkpt>
        <trkpt lat="28.0192328" lon="105.6178162"><ele>1163.39</ele><time>2026-05-02T22:21:15.000Z</time></trkpt>
        <trkpt lat="28.0191458" lon="105.6178725"><ele>1161.2</ele><time>2026-05-02T22:21:23.000Z</time></trkpt>
        <trkpt lat="28.019063" lon="105.6179429"><ele>1159.7</ele><time>2026-05-02T22:21:33.000Z</time></trkpt>
        <trkpt lat="28.0189798" lon="105.6180009"><ele>1158.28</ele><time>2026-05-02T22:21:41.000Z</time></trkpt>
        <trkpt lat="28.0188809" lon="105.6180125"><ele>1156.87</ele><time>2026-05-02T22:21:51.000Z</time></trkpt>
        <trkpt lat="28.018811" lon="105.6180742"><ele>1155.38</ele><time>2026-05-02T22:22:01.000Z</time></trkpt>
        <trkpt lat="28.01883" lon="105.6181754"><ele>1154.27</ele><time>2026-05-02T22:22:11.000Z</time></trkpt>
        <trkpt lat="28.0189091" lon="105.618267"><ele>1153.29</ele><time>2026-05-02T22:22:21.000Z</time></trkpt>
        <trkpt lat="28.0190209" lon="105.6183333"><ele>1152.65</ele><time>2026-05-02T22:22:31.000Z</time></trkpt>
        <trkpt lat="28.0191397" lon="105.6183719"><ele>1152.03</ele><time>2026-05-02T22:22:41.000Z</time></trkpt>
        <trkpt lat="28.0192384" lon="105.6184123"><ele>1151.89</ele><time>2026-05-02T22:22:49.000Z</time></trkpt>
        <trkpt lat="28.0192929" lon="105.6184943"><ele>1152.15</ele><time>2026-05-02T22:23:03.000Z</time></trkpt>
        <trkpt lat="28.0193194" lon="105.6185923"><ele>1153.2</ele><time>2026-05-02T22:23:15.000Z</time></trkpt>
        <trkpt lat="28.0193379" lon="105.6186957"><ele>1154.36</ele><time>2026-05-02T22:23:31.000Z</time></trkpt>
        <trkpt lat="28.0193648" lon="105.618798"><ele>1155.33</ele><time>2026-05-02T22:23:43.000Z</time></trkpt>
        <trkpt lat="28.0193817" lon="105.6189061"><ele>1156.26</ele><time>2026-05-02T22:23:59.000Z</time></trkpt>
        <trkpt lat="28.0193916" lon="105.619017"><ele>1156.92</ele><time>2026-05-02T22:24:15.000Z</time></trkpt>
        <trkpt lat="28.0193798" lon="105.6191233"><ele>1157.17</ele><time>2026-05-02T22:24:31.000Z</time></trkpt>
        <trkpt lat="28.0193734" lon="105.6192274"><ele>1157.53</ele><time>2026-05-02T22:24:43.000Z</time></trkpt>
        <trkpt lat="28.0193543" lon="105.6193294"><ele>1157.86</ele><time>2026-05-02T22:24:55.000Z</time></trkpt>
        <trkpt lat="28.0193337" lon="105.6194395"><ele>1157.4</ele><time>2026-05-02T22:25:03.000Z</time></trkpt>
        <trkpt lat="28.0193022" lon="105.6195391"><ele>1156.71</ele><time>2026-05-02T22:25:27.000Z</time></trkpt>
        <trkpt lat="28.0192223" lon="105.6195605"><ele>1157.48</ele><time>2026-05-02T22:25:33.000Z</time></trkpt>
        <trkpt lat="28.0191457" lon="105.6196226"><ele>1158.22</ele><time>2026-05-02T22:25:51.000Z</time></trkpt>
        <trkpt lat="28.0190583" lon="105.6197016"><ele>1159.03</ele><time>2026-05-02T22:26:11.000Z</time></trkpt>
        <trkpt lat="28.018966" lon="105.6197205"><ele>1158.67</ele><time>2026-05-02T22:26:19.000Z</time></trkpt>
        <trkpt lat="28.0188746" lon="105.6197004"><ele>1157.78</ele><time>2026-05-02T22:26:29.000Z</time></trkpt>
        <trkpt lat="28.0187957" lon="105.6196325"><ele>1157.4</ele><time>2026-05-02T22:26:39.000Z</time></trkpt>
        <trkpt lat="28.0187219" lon="105.6195458"><ele>1157.66</ele><time>2026-05-02T22:26:49.000Z</time></trkpt>
        <trkpt lat="28.0186396" lon="105.6194668"><ele>1158.15</ele><time>2026-05-02T22:27:01.000Z</time></trkpt>
        <trkpt lat="28.0185623" lon="105.6194004"><ele>1159.07</ele><time>2026-05-02T22:27:15.000Z</time></trkpt>
        <trkpt lat="28.0184796" lon="105.6193424"><ele>1160.08</ele><time>2026-05-02T22:27:29.000Z</time></trkpt>
        <trkpt lat="28.0183884" lon="105.6192938"><ele>1160.43</ele><time>2026-05-02T22:27:41.000Z</time></trkpt>
        <trkpt lat="28.0182894" lon="105.6192821"><ele>1160.03</ele><time>2026-05-02T22:27:53.000Z</time></trkpt>
        <trkpt lat="28.0182094" lon="105.6192367"><ele>1159.24</ele><time>2026-05-02T22:28:03.000Z</time></trkpt>
        <trkpt lat="28.0181521" lon="105.6191579"><ele>1159.44</ele><time>2026-05-02T22:28:11.000Z</time></trkpt>
        <trkpt lat="28.0180711" lon="105.6191062"><ele>1158.69</ele><time>2026-05-02T22:28:21.000Z</time></trkpt>
        <trkpt lat="28.0179874" lon="105.619059"><ele>1157.96</ele><time>2026-05-02T22:28:31.000Z</time></trkpt>
        <trkpt lat="28.0179069" lon="105.6189969"><ele>1156</ele><time>2026-05-02T22:28:41.000Z</time></trkpt>
        <trkpt lat="28.0178254" lon="105.6189238"><ele>1153.85</ele><time>2026-05-02T22:28:51.000Z</time></trkpt>
        <trkpt lat="28.0177361" lon="105.6188737"><ele>1152.11</ele><time>2026-05-02T22:29:03.000Z</time></trkpt>
        <trkpt lat="28.0176879" lon="105.6189392"><ele>1152.06</ele><time>2026-05-02T22:29:21.000Z</time></trkpt>
        <trkpt lat="28.0177115" lon="105.6190413"><ele>1152.59</ele><time>2026-05-02T22:29:33.000Z</time></trkpt>
        <trkpt lat="28.0177693" lon="105.6191499"><ele>1153.5</ele><time>2026-05-02T22:29:45.000Z</time></trkpt>
        <trkpt lat="28.0178071" lon="105.6192592"><ele>1154.15</ele><time>2026-05-02T22:29:53.000Z</time></trkpt>
        <trkpt lat="28.0178544" lon="105.6193628"><ele>1154.51</ele><time>2026-05-02T22:30:03.000Z</time></trkpt>
        <trkpt lat="28.0179163" lon="105.6194588"><ele>1154.68</ele><time>2026-05-02T22:30:15.000Z</time></trkpt>
        <trkpt lat="28.0179635" lon="105.6195614"><ele>1154.6</ele><time>2026-05-02T22:30:25.000Z</time></trkpt>
        <trkpt lat="28.0179727" lon="105.6196677"><ele>1155.12</ele><time>2026-05-02T22:30:37.000Z</time></trkpt>
        <trkpt lat="28.0179755" lon="105.6197751"><ele>1155.02</ele><time>2026-05-02T22:30:47.000Z</time></trkpt>
        <trkpt lat="28.0179706" lon="105.6198863"><ele>1154.88</ele><time>2026-05-02T22:30:57.000Z</time></trkpt>
        <trkpt lat="28.0179631" lon="105.6199923"><ele>1154.59</ele><time>2026-05-02T22:31:07.000Z</time></trkpt>
        <trkpt lat="28.0179545" lon="105.6200973"><ele>1154.72</ele><time>2026-05-02T22:31:17.000Z</time></trkpt>
        <trkpt lat="28.0179364" lon="105.6201983"><ele>1154.8</ele><time>2026-05-02T22:31:27.000Z</time></trkpt>
        <trkpt lat="28.0178989" lon="105.6202993"><ele>1154.76</ele><time>2026-05-02T22:31:39.000Z</time></trkpt>
        <trkpt lat="28.0178476" lon="105.6204004"><ele>1155.03</ele><time>2026-05-02T22:31:51.000Z</time></trkpt>
        <trkpt lat="28.0177567" lon="105.620445"><ele>1155.62</ele><time>2026-05-02T22:33:11.000Z</time></trkpt>
        <trkpt lat="28.0177" lon="105.6205333"><ele>1156.17</ele><time>2026-05-02T22:33:33.000Z</time></trkpt>
        <trkpt lat="28.0176194" lon="105.6205779"><ele>1156.87</ele><time>2026-05-02T22:33:47.000Z</time></trkpt>
        <trkpt lat="28.017537" lon="105.6206406"><ele>1157.27</ele><time>2026-05-02T22:33:59.000Z</time></trkpt>
        <trkpt lat="28.0174591" lon="105.6207035"><ele>1156.98</ele><time>2026-05-02T22:34:13.000Z</time></trkpt>
        <trkpt lat="28.0173944" lon="105.6207842"><ele>1156.3</ele><time>2026-05-02T22:34:29.000Z</time></trkpt>
        <trkpt lat="28.0173258" lon="105.6208589"><ele>1155.87</ele><time>2026-05-02T22:35:07.000Z</time></trkpt>
        <trkpt lat="28.0173003" lon="105.620958"><ele>1155.58</ele><time>2026-05-02T22:35:27.000Z</time></trkpt>
        <trkpt lat="28.0172253" lon="105.6209281"><ele>1155.76</ele><time>2026-05-02T22:36:09.000Z</time></trkpt>
        <trkpt lat="28.0171572" lon="105.6209586"><ele>1155.95</ele><time>2026-05-02T22:36:23.000Z</time></trkpt>
        <trkpt lat="28.0170669" lon="105.6209498"><ele>1157.91</ele><time>2026-05-02T22:36:31.000Z</time></trkpt>
        <trkpt lat="28.016965" lon="105.6209242"><ele>1158.42</ele><time>2026-05-02T22:36:39.000Z</time></trkpt>
        <trkpt lat="28.0168591" lon="105.6208871"><ele>1157.98</ele><time>2026-05-02T22:36:49.000Z</time></trkpt>
        <trkpt lat="28.0167556" lon="105.6208329"><ele>1156.4</ele><time>2026-05-02T22:37:05.000Z</time></trkpt>
        <trkpt lat="28.0167441" lon="105.620724"><ele>1154.68</ele><time>2026-05-02T22:37:20.000Z</time></trkpt>
        <trkpt lat="28.016734" lon="105.6206071"><ele>1154.13</ele><time>2026-05-02T22:37:40.000Z</time></trkpt>
        <trkpt lat="28.0166845" lon="105.620515"><ele>1156.31</ele><time>2026-05-02T22:37:58.000Z</time></trkpt>
        <trkpt lat="28.016613" lon="105.6204345"><ele>1158.07</ele><time>2026-05-02T22:38:13.000Z</time></trkpt>
        <trkpt lat="28.0166106" lon="105.6204985"><ele>1158.43</ele><time>2026-05-02T22:38:25.000Z</time></trkpt>
        <trkpt lat="28.0166338" lon="105.6206058"><ele>1159.28</ele><time>2026-05-02T22:38:33.000Z</time></trkpt>
        <trkpt lat="28.0166922" lon="105.6207096"><ele>1158.6</ele><time>2026-05-02T22:38:43.000Z</time></trkpt>
        <trkpt lat="28.0166966" lon="105.6206887"><ele>1156.66</ele><time>2026-05-02T22:38:59.000Z</time></trkpt>
        <trkpt lat="28.0166566" lon="105.6205914"><ele>1153.02</ele><time>2026-05-02T22:39:03.000Z</time></trkpt>
        <trkpt lat="28.0166064" lon="105.6204562"><ele>1150.43</ele><time>2026-05-02T22:39:07.000Z</time></trkpt>
        <trkpt lat="28.0165592" lon="105.6203252"><ele>1148.96</ele><time>2026-05-02T22:39:15.000Z</time></trkpt>
        <trkpt lat="28.0165792" lon="105.6202204"><ele>1148.46</ele><time>2026-05-02T22:39:21.000Z</time></trkpt>
        <trkpt lat="28.0165784" lon="105.6201178"><ele>1148.69</ele><time>2026-05-02T22:39:37.000Z</time></trkpt>
        <trkpt lat="28.016528" lon="105.6200374"><ele>1149.68</ele><time>2026-05-02T22:39:47.000Z</time></trkpt>
        <trkpt lat="28.0164652" lon="105.6199599"><ele>1149.95</ele><time>2026-05-02T22:40:01.000Z</time></trkpt>
        <trkpt lat="28.0163903" lon="105.6198573"><ele>1150.87</ele><time>2026-05-02T22:40:21.000Z</time></trkpt>
        <trkpt lat="28.0163105" lon="105.6197735"><ele>1151.96</ele><time>2026-05-02T22:40:33.000Z</time></trkpt>
        <trkpt lat="28.016218" lon="105.6197199"><ele>1151.29</ele><time>2026-05-02T22:41:09.000Z</time></trkpt>
        <trkpt lat="28.016132" lon="105.6196619"><ele>1152.67</ele><time>2026-05-02T22:41:23.000Z</time></trkpt>
        <trkpt lat="28.0160549" lon="105.6196041"><ele>1154.49</ele><time>2026-05-02T22:41:37.000Z</time></trkpt>
        <trkpt lat="28.0159733" lon="105.6195417"><ele>1156.26</ele><time>2026-05-02T22:42:51.000Z</time></trkpt>
        <trkpt lat="28.0158983" lon="105.6194833"><ele>1156.92</ele><time>2026-05-02T22:43:05.000Z</time></trkpt>
        <trkpt lat="28.0158346" lon="105.619401"><ele>1158.33</ele><time>2026-05-02T22:43:27.000Z</time></trkpt>
        <trkpt lat="28.0157575" lon="105.6193376"><ele>1159.65</ele><time>2026-05-02T22:43:45.000Z</time></trkpt>
        <trkpt lat="28.0156736" lon="105.6192738"><ele>1160.49</ele><time>2026-05-02T22:44:01.000Z</time></trkpt>
        <trkpt lat="28.0155914" lon="105.6192145"><ele>1161.7</ele><time>2026-05-02T22:44:33.000Z</time></trkpt>
        <trkpt lat="28.0154916" lon="105.6191754"><ele>1161.74</ele><time>2026-05-02T22:45:15.000Z</time></trkpt>
        <trkpt lat="28.0154169" lon="105.6191072"><ele>1161.81</ele><time>2026-05-02T22:46:11.000Z</time></trkpt>
        <trkpt lat="28.0153461" lon="105.6190407"><ele>1161.72</ele><time>2026-05-02T22:46:37.000Z</time></trkpt>
        <trkpt lat="28.0152936" lon="105.6189582"><ele>1162.1</ele><time>2026-05-02T22:46:57.000Z</time></trkpt>
        <trkpt lat="28.0152345" lon="105.6188815"><ele>1162.1</ele><time>2026-05-02T22:47:17.000Z</time></trkpt>
        <trkpt lat="28.0152406" lon="105.6187868"><ele>1162.27</ele><time>2026-05-02T22:47:31.000Z</time></trkpt>
        <trkpt lat="28.0152502" lon="105.6186757"><ele>1162.46</ele><time>2026-05-02T22:47:49.000Z</time></trkpt>
        <trkpt lat="28.0152058" lon="105.6185923"><ele>1164.28</ele><time>2026-05-02T22:48:05.000Z</time></trkpt>
        <trkpt lat="28.0151121" lon="105.6185556"><ele>1166.96</ele><time>2026-05-02T22:48:19.000Z</time></trkpt>
        <trkpt lat="28.0150134" lon="105.6185464"><ele>1168.7</ele><time>2026-05-02T22:48:29.000Z</time></trkpt>
        <trkpt lat="28.0149165" lon="105.6185282"><ele>1171.75</ele><time>2026-05-02T22:48:43.000Z</time></trkpt>
        <trkpt lat="28.0148275" lon="105.6184947"><ele>1174.44</ele><time>2026-05-02T22:48:55.000Z</time></trkpt>
        <trkpt lat="28.0147425" lon="105.6184534"><ele>1176.23</ele><time>2026-05-02T22:49:09.000Z</time></trkpt>
        <trkpt lat="28.014659" lon="105.6183943"><ele>1176.82</ele><time>2026-05-02T22:49:21.000Z</time></trkpt>
        <trkpt lat="28.0145722" lon="105.6183556"><ele>1177.07</ele><time>2026-05-02T22:49:33.000Z</time></trkpt>
        <trkpt lat="28.0144791" lon="105.6183119"><ele>1176.7</ele><time>2026-05-02T22:49:47.000Z</time></trkpt>
        <trkpt lat="28.0144137" lon="105.6182383"><ele>1175.28</ele><time>2026-05-02T22:50:01.000Z</time></trkpt>
        <trkpt lat="28.0143377" lon="105.6181739"><ele>1173.95</ele><time>2026-05-02T22:50:17.000Z</time></trkpt>
        <trkpt lat="28.0142389" lon="105.6181459"><ele>1172.73</ele><time>2026-05-02T22:50:31.000Z</time></trkpt>
        <trkpt lat="28.0141504" lon="105.6181089"><ele>1172.24</ele><time>2026-05-02T22:50:45.000Z</time></trkpt>
        <trkpt lat="28.0140807" lon="105.6180431"><ele>1171.79</ele><time>2026-05-02T22:51:01.000Z</time></trkpt>
        <trkpt lat="28.013995" lon="105.6180217"><ele>1171.54</ele><time>2026-05-02T22:52:15.000Z</time></trkpt>
        <trkpt lat="28.01389" lon="105.6180033"><ele>1173.16</ele><time>2026-05-02T22:52:23.000Z</time></trkpt>
        <trkpt lat="28.0138597" lon="105.6179935"><ele>1174.16</ele><time>2026-05-02T22:52:35.000Z</time></trkpt>
        <trkpt lat="28.013781" lon="105.6179902"><ele>1174.52</ele><time>2026-05-02T22:53:04.000Z</time></trkpt>
        <trkpt lat="28.0137037" lon="105.6179365"><ele>1175.12</ele><time>2026-05-02T22:53:28.000Z</time></trkpt>
        <trkpt lat="28.0136124" lon="105.6179167"><ele>1176.36</ele><time>2026-05-02T22:53:44.000Z</time></trkpt>
        <trkpt lat="28.0135163" lon="105.6179205"><ele>1176.5</ele><time>2026-05-02T22:54:40.000Z</time></trkpt>
        <trkpt lat="28.0134319" lon="105.6179799"><ele>1174.7</ele><time>2026-05-02T22:54:56.000Z</time></trkpt>
        <trkpt lat="28.0134089" lon="105.6179992"><ele>1174.35</ele><time>2026-05-02T22:55:08.000Z</time></trkpt>
        <trkpt lat="28.0133856" lon="105.617926"><ele>1174.16</ele><time>2026-05-02T22:55:16.000Z</time></trkpt>
        <trkpt lat="28.0133536" lon="105.6179695"><ele>1174.05</ele><time>2026-05-02T22:55:46.000Z</time></trkpt>
        <trkpt lat="28.0132704" lon="105.6179631"><ele>1174.89</ele><time>2026-05-02T22:56:24.000Z</time></trkpt>
        <trkpt lat="28.0131641" lon="105.6179335"><ele>1176.87</ele><time>2026-05-02T22:57:14.000Z</time></trkpt>
        <trkpt lat="28.0130758" lon="105.6178712"><ele>1176.75</ele><time>2026-05-02T22:57:34.000Z</time></trkpt>
        <trkpt lat="28.0129828" lon="105.6178049"><ele>1176.3</ele><time>2026-05-02T22:57:44.000Z</time></trkpt>
        <trkpt lat="28.0129149" lon="105.6177123"><ele>1175.23</ele><time>2026-05-02T22:58:00.000Z</time></trkpt>
        <trkpt lat="28.0128415" lon="105.6177282"><ele>1174.14</ele><time>2026-05-02T22:58:46.000Z</time></trkpt>
        <trkpt lat="28.0127601" lon="105.6176883"><ele>1175.76</ele><time>2026-05-02T22:59:12.000Z</time></trkpt>
        <trkpt lat="28.0126716" lon="105.6176722"><ele>1176.64</ele><time>2026-05-02T22:59:22.000Z</time></trkpt>
        <trkpt lat="28.0125808" lon="105.6176729"><ele>1177.65</ele><time>2026-05-02T22:59:36.000Z</time></trkpt>
        <trkpt lat="28.0124885" lon="105.6177024"><ele>1177.37</ele><time>2026-05-02T23:00:18.000Z</time></trkpt>
        <trkpt lat="28.012396" lon="105.6177499"><ele>1175.92</ele><time>2026-05-02T23:00:34.000Z</time></trkpt>
        <trkpt lat="28.0122975" lon="105.6177839"><ele>1175.65</ele><time>2026-05-02T23:00:50.000Z</time></trkpt>
        <trkpt lat="28.012197" lon="105.6178147"><ele>1175.67</ele><time>2026-05-02T23:01:04.000Z</time></trkpt>
        <trkpt lat="28.0120999" lon="105.61785"><ele>1175.64</ele><time>2026-05-02T23:01:20.000Z</time></trkpt>
        <trkpt lat="28.0120107" lon="105.6178932"><ele>1175.24</ele><time>2026-05-02T23:01:34.000Z</time></trkpt>
        <trkpt lat="28.0119231" lon="105.6178901"><ele>1175.44</ele><time>2026-05-02T23:01:56.000Z</time></trkpt>
        <trkpt lat="28.0118183" lon="105.61785"><ele>1175.81</ele><time>2026-05-02T23:03:06.000Z</time></trkpt>
        <trkpt lat="28.01172" lon="105.6178533"><ele>1175.5</ele><time>2026-05-02T23:03:28.000Z</time></trkpt>
        <trkpt lat="28.0116231" lon="105.6178609"><ele>1174.86</ele><time>2026-05-02T23:03:42.000Z</time></trkpt>
        <trkpt lat="28.01152" lon="105.6178486"><ele>1174.66</ele><time>2026-05-02T23:03:56.000Z</time></trkpt>
        <trkpt lat="28.0114225" lon="105.617844"><ele>1174.89</ele><time>2026-05-02T23:04:10.000Z</time></trkpt>
        <trkpt lat="28.0113184" lon="105.6178914"><ele>1175.67</ele><time>2026-05-02T23:04:42.000Z</time></trkpt>
        <trkpt lat="28.0112693" lon="105.6179905"><ele>1175.55</ele><time>2026-05-02T23:05:00.000Z</time></trkpt>
        <trkpt lat="28.0111994" lon="105.6180657"><ele>1175.36</ele><time>2026-05-02T23:05:42.000Z</time></trkpt>
        <trkpt lat="28.0111152" lon="105.6181103"><ele>1175.2</ele><time>2026-05-02T23:06:28.000Z</time></trkpt>
        <trkpt lat="28.0110467" lon="105.6181891"><ele>1176.32</ele><time>2026-05-02T23:06:38.000Z</time></trkpt>
        <trkpt lat="28.0109832" lon="105.6182664"><ele>1176.4</ele><time>2026-05-02T23:07:19.000Z</time></trkpt>
        <trkpt lat="28.0109374" lon="105.6183583"><ele>1178.08</ele><time>2026-05-02T23:08:01.000Z</time></trkpt>
        <trkpt lat="28.0109086" lon="105.6184261"><ele>1178.73</ele><time>2026-05-02T23:08:15.000Z</time></trkpt>
        <trkpt lat="28.0109061" lon="105.6185215"><ele>1178.59</ele><time>2026-05-02T23:08:41.000Z</time></trkpt>
        <trkpt lat="28.0108904" lon="105.6186291"><ele>1177.91</ele><time>2026-05-02T23:08:59.000Z</time></trkpt>
        <trkpt lat="28.0108524" lon="105.6187299"><ele>1176.83</ele><time>2026-05-02T23:09:21.000Z</time></trkpt>
        <trkpt lat="28.0108047" lon="105.6188219"><ele>1176.13</ele><time>2026-05-02T23:09:55.000Z</time></trkpt>
        <trkpt lat="28.0107217" lon="105.6188817"><ele>1174.44</ele><time>2026-05-02T23:10:35.000Z</time></trkpt>
        <trkpt lat="28.0107217" lon="105.6188817"><ele>1174.44</ele><time>2026-05-02T23:10:35.000Z</time></trkpt>
        <trkpt lat="28.0107567" lon="105.6188133"><ele>1167.3</ele><time>2026-05-02T23:14:45.000Z</time></trkpt>
        <trkpt lat="28.0107567" lon="105.6188133"><ele>1167.3</ele><time>2026-05-02T23:14:45.000Z</time></trkpt>
        <trkpt lat="28.0106833" lon="105.618875"><ele>1167.3</ele><time>2026-05-02T23:19:15.000Z</time></trkpt>
        <trkpt lat="28.01063" lon="105.61896"><ele>1167.77</ele><time>2026-05-02T23:20:11.000Z</time></trkpt>
        <trkpt lat="28.0105879" lon="105.6190591"><ele>1168.04</ele><time>2026-05-02T23:20:35.000Z</time></trkpt>
        <trkpt lat="28.0105595" lon="105.6191671"><ele>1168.76</ele><time>2026-05-02T23:21:19.000Z</time></trkpt>
        <trkpt lat="28.0105667" lon="105.619278"><ele>1170.5</ele><time>2026-05-02T23:21:27.000Z</time></trkpt>
        <trkpt lat="28.0106174" lon="105.6193707"><ele>1171.53</ele><time>2026-05-02T23:21:51.000Z</time></trkpt>
        <trkpt lat="28.0106843" lon="105.6194512"><ele>1172.46</ele><time>2026-05-02T23:22:21.000Z</time></trkpt>
        <trkpt lat="28.010672" lon="105.6195504"><ele>1171.62</ele><time>2026-05-02T23:22:37.000Z</time></trkpt>
        <trkpt lat="28.0106304" lon="105.6196563"><ele>1170.06</ele><time>2026-05-02T23:22:51.000Z</time></trkpt>
        <trkpt lat="28.0105784" lon="105.6197553"><ele>1168.4</ele><time>2026-05-02T23:23:01.000Z</time></trkpt>
        <trkpt lat="28.0104981" lon="105.6198349"><ele>1168.44</ele><time>2026-05-02T23:23:13.000Z</time></trkpt>
        <trkpt lat="28.010401" lon="105.6198899"><ele>1168.85</ele><time>2026-05-02T23:23:37.000Z</time></trkpt>
        <trkpt lat="28.0104432" lon="105.6199158"><ele>1169.09</ele><time>2026-05-02T23:23:59.000Z</time></trkpt>
        <trkpt lat="28.0105399" lon="105.6199192"><ele>1168.23</ele><time>2026-05-02T23:24:13.000Z</time></trkpt>
        <trkpt lat="28.0106451" lon="105.6199219"><ele>1166.84</ele><time>2026-05-02T23:24:27.000Z</time></trkpt>
        <trkpt lat="28.0107521" lon="105.6199033"><ele>1165.19</ele><time>2026-05-02T23:24:39.000Z</time></trkpt>
        <trkpt lat="28.0108584" lon="105.6198795"><ele>1163.22</ele><time>2026-05-02T23:24:53.000Z</time></trkpt>
        <trkpt lat="28.0109635" lon="105.6198621"><ele>1161.32</ele><time>2026-05-02T23:25:05.000Z</time></trkpt>
        <trkpt lat="28.0110659" lon="105.6198407"><ele>1160.06</ele><time>2026-05-02T23:25:19.000Z</time></trkpt>
        <trkpt lat="28.0111618" lon="105.6198246"><ele>1159.39</ele><time>2026-05-02T23:25:47.000Z</time></trkpt>
        <trkpt lat="28.0112501" lon="105.6197919"><ele>1157.93</ele><time>2026-05-02T23:26:26.000Z</time></trkpt>
        <trkpt lat="28.0113234" lon="105.6197206"><ele>1158.99</ele><time>2026-05-02T23:26:42.000Z</time></trkpt>
        <trkpt lat="28.0113981" lon="105.6196435"><ele>1158.27</ele><time>2026-05-02T23:26:56.000Z</time></trkpt>
        <trkpt lat="28.0114394" lon="105.6195481"><ele>1156.73</ele><time>2026-05-02T23:27:12.000Z</time></trkpt>
        <trkpt lat="28.0114702" lon="105.6194477"><ele>1154.65</ele><time>2026-05-02T23:27:24.000Z</time></trkpt>
        <trkpt lat="28.0115231" lon="105.6193599"><ele>1152.09</ele><time>2026-05-02T23:27:38.000Z</time></trkpt>
        <trkpt lat="28.0115883" lon="105.6192793"><ele>1148.91</ele><time>2026-05-02T23:27:58.000Z</time></trkpt>
        <trkpt lat="28.0116801" lon="105.619245"><ele>1146.37</ele><time>2026-05-02T23:28:12.000Z</time></trkpt>
        <trkpt lat="28.0117672" lon="105.6192023"><ele>1144.66</ele><time>2026-05-02T23:28:26.000Z</time></trkpt>
        <trkpt lat="28.0118593" lon="105.6191788"><ele>1144.03</ele><time>2026-05-02T23:28:36.000Z</time></trkpt>
        <trkpt lat="28.0119437" lon="105.61913"><ele>1143.8</ele><time>2026-05-02T23:28:50.000Z</time></trkpt>
        <trkpt lat="28.0120247" lon="105.6190753"><ele>1142.86</ele><time>2026-05-02T23:29:00.000Z</time></trkpt>
        <trkpt lat="28.0120944" lon="105.6189991"><ele>1142.06</ele><time>2026-05-02T23:29:16.000Z</time></trkpt>
        <trkpt lat="28.0121753" lon="105.6189519"><ele>1140.83</ele><time>2026-05-02T23:29:26.000Z</time></trkpt>
        <trkpt lat="28.0122598" lon="105.6188867"><ele>1140.39</ele><time>2026-05-02T23:29:38.000Z</time></trkpt>
        <trkpt lat="28.0123416" lon="105.6188305"><ele>1139.7</ele><time>2026-05-02T23:29:50.000Z</time></trkpt>
        <trkpt lat="28.012427" lon="105.6187957"><ele>1138.45</ele><time>2026-05-02T23:30:04.000Z</time></trkpt>
        <trkpt lat="28.0125126" lon="105.6187459"><ele>1136.54</ele><time>2026-05-02T23:30:24.000Z</time></trkpt>
        <trkpt lat="28.0126005" lon="105.6187119"><ele>1135.62</ele><time>2026-05-02T23:30:36.000Z</time></trkpt>
        <trkpt lat="28.0126929" lon="105.6187089"><ele>1135.22</ele><time>2026-05-02T23:30:50.000Z</time></trkpt>
        <trkpt lat="28.0127855" lon="105.6186939"><ele>1135.04</ele><time>2026-05-02T23:31:16.000Z</time></trkpt>
        <trkpt lat="28.0128465" lon="105.6186172"><ele>1134.38</ele><time>2026-05-02T23:31:28.000Z</time></trkpt>
        <trkpt lat="28.0128632" lon="105.6185026"><ele>1133.31</ele><time>2026-05-02T23:31:50.000Z</time></trkpt>
        <trkpt lat="28.0128967" lon="105.6183967"><ele>1132.88</ele><time>2026-05-02T23:33:06.000Z</time></trkpt>
        <trkpt lat="28.01294" lon="105.6182983"><ele>1131.3</ele><time>2026-05-02T23:33:26.000Z</time></trkpt>
        <trkpt lat="28.0130017" lon="105.6181986"><ele>1128.76</ele><time>2026-05-02T23:34:00.000Z</time></trkpt>
        <trkpt lat="28.0131168" lon="105.6181668"><ele>1126.32</ele><time>2026-05-02T23:34:26.000Z</time></trkpt>
        <trkpt lat="28.0131408" lon="105.6182452"><ele>1126.69</ele><time>2026-05-02T23:35:17.000Z</time></trkpt>
        <trkpt lat="28.0131202" lon="105.6183564"><ele>1127.99</ele><time>2026-05-02T23:35:29.000Z</time></trkpt>
        <trkpt lat="28.013115" lon="105.6184784"><ele>1127.95</ele><time>2026-05-02T23:35:41.000Z</time></trkpt>
        <trkpt lat="28.0131182" lon="105.6185996"><ele>1127.41</ele><time>2026-05-02T23:35:57.000Z</time></trkpt>
        <trkpt lat="28.0131874" lon="105.6186653"><ele>1124.78</ele><time>2026-05-02T23:36:28.000Z</time></trkpt>
        <trkpt lat="28.0132345" lon="105.6185998"><ele>1123.89</ele><time>2026-05-02T23:36:38.000Z</time></trkpt>
        <trkpt lat="28.0133027" lon="105.6185196"><ele>1123.98</ele><time>2026-05-02T23:36:48.000Z</time></trkpt>
        <trkpt lat="28.0133904" lon="105.6184573"><ele>1124.55</ele><time>2026-05-02T23:37:00.000Z</time></trkpt>
        <trkpt lat="28.0134287" lon="105.618527"><ele>1123.28</ele><time>2026-05-02T23:37:34.000Z</time></trkpt>
        <trkpt lat="28.0134283" lon="105.6186429"><ele>1117.31</ele><time>2026-05-02T23:37:44.000Z</time></trkpt>
        <trkpt lat="28.0134067" lon="105.6187618"><ele>1114.12</ele><time>2026-05-02T23:38:02.000Z</time></trkpt>
        <trkpt lat="28.0134543" lon="105.6188435"><ele>1111.32</ele><time>2026-05-02T23:38:32.000Z</time></trkpt>
        <trkpt lat="28.0135387" lon="105.6188619"><ele>1108.9</ele><time>2026-05-02T23:38:58.000Z</time></trkpt>
        <trkpt lat="28.0136517" lon="105.61886"><ele>1107.82</ele><time>2026-05-02T23:40:22.000Z</time></trkpt>
        <trkpt lat="28.0137467" lon="105.6188533"><ele>1106.78</ele><time>2026-05-02T23:40:34.000Z</time></trkpt>
        <trkpt lat="28.0138388" lon="105.6188453"><ele>1106.1</ele><time>2026-05-02T23:40:46.000Z</time></trkpt>
        <trkpt lat="28.0139112" lon="105.6189013"><ele>1103.82</ele><time>2026-05-02T23:41:08.000Z</time></trkpt>
        <trkpt lat="28.0140025" lon="105.6189346"><ele>1099.55</ele><time>2026-05-02T23:41:22.000Z</time></trkpt>
        <trkpt lat="28.0140974" lon="105.618963"><ele>1095.83</ele><time>2026-05-02T23:41:36.000Z</time></trkpt>
        <trkpt lat="28.0141808" lon="105.6189151"><ele>1092.33</ele><time>2026-05-02T23:41:58.000Z</time></trkpt>
        <trkpt lat="28.0142658" lon="105.6189156"><ele>1090.73</ele><time>2026-05-02T23:42:06.000Z</time></trkpt>
        <trkpt lat="28.014353" lon="105.6189455"><ele>1089.81</ele><time>2026-05-02T23:42:16.000Z</time></trkpt>
        <trkpt lat="28.0144086" lon="105.6190445"><ele>1088.6</ele><time>2026-05-02T23:42:28.000Z</time></trkpt>
        <trkpt lat="28.0144564" lon="105.6191507"><ele>1087.31</ele><time>2026-05-02T23:42:44.000Z</time></trkpt>
        <trkpt lat="28.014513" lon="105.6192422"><ele>1085.8</ele><time>2026-05-02T23:43:06.000Z</time></trkpt>
        <trkpt lat="28.014588" lon="105.6193178"><ele>1084.81</ele><time>2026-05-02T23:43:20.000Z</time></trkpt>
        <trkpt lat="28.0146536" lon="105.6194033"><ele>1084.38</ele><time>2026-05-02T23:43:38.000Z</time></trkpt>
        <trkpt lat="28.0147036" lon="105.6195053"><ele>1084.21</ele><time>2026-05-02T23:43:50.000Z</time></trkpt>
        <trkpt lat="28.014763" lon="105.6195917"><ele>1085.2</ele><time>2026-05-02T23:44:04.000Z</time></trkpt>
        <trkpt lat="28.0148355" lon="105.6196715"><ele>1086.36</ele><time>2026-05-02T23:44:22.000Z</time></trkpt>
        <trkpt lat="28.0149065" lon="105.6197415"><ele>1086.51</ele><time>2026-05-02T23:45:10.000Z</time></trkpt>
        <trkpt lat="28.0149799" lon="105.6198123"><ele>1084.52</ele><time>2026-05-02T23:45:28.000Z</time></trkpt>
        <trkpt lat="28.0150376" lon="105.619893"><ele>1082.45</ele><time>2026-05-02T23:45:46.000Z</time></trkpt>
        <trkpt lat="28.0150667" lon="105.6199989"><ele>1080.71</ele><time>2026-05-02T23:45:56.000Z</time></trkpt>
        <trkpt lat="28.0151312" lon="105.6200699"><ele>1080.66</ele><time>2026-05-02T23:46:14.000Z</time></trkpt>
        <trkpt lat="28.0151704" lon="105.6201604"><ele>1078.57</ele><time>2026-05-02T23:46:28.000Z</time></trkpt>
        <trkpt lat="28.0152058" lon="105.6202553"><ele>1075.23</ele><time>2026-05-02T23:46:42.000Z</time></trkpt>
        <trkpt lat="28.015257" lon="105.6203463"><ele>1071.39</ele><time>2026-05-02T23:46:54.000Z</time></trkpt>
        <trkpt lat="28.015277" lon="105.620453"><ele>1068.25</ele><time>2026-05-02T23:47:06.000Z</time></trkpt>
        <trkpt lat="28.0153052" lon="105.6205653"><ele>1066.42</ele><time>2026-05-02T23:47:16.000Z</time></trkpt>
        <trkpt lat="28.0153542" lon="105.6206738"><ele>1066.59</ele><time>2026-05-02T23:47:28.000Z</time></trkpt>
        <trkpt lat="28.0153696" lon="105.6207162"><ele>1067.24</ele><time>2026-05-02T23:47:30.000Z</time></trkpt>
        <trkpt lat="28.0153995" lon="105.6207982"><ele>1067.69</ele><time>2026-05-02T23:48:00.000Z</time></trkpt>
        <trkpt lat="28.0154334" lon="105.6208981"><ele>1067.83</ele><time>2026-05-02T23:48:10.000Z</time></trkpt>
        <trkpt lat="28.0154562" lon="105.6210005"><ele>1068.07</ele><time>2026-05-02T23:48:20.000Z</time></trkpt>
        <trkpt lat="28.0154696" lon="105.6211064"><ele>1067.44</ele><time>2026-05-02T23:48:34.000Z</time></trkpt>
        <trkpt lat="28.0154888" lon="105.6212154"><ele>1066.73</ele><time>2026-05-02T23:48:48.000Z</time></trkpt>
        <trkpt lat="28.0155085" lon="105.6213237"><ele>1067.54</ele><time>2026-05-02T23:48:58.000Z</time></trkpt>
        <trkpt lat="28.0155509" lon="105.6214225"><ele>1068.47</ele><time>2026-05-02T23:49:16.000Z</time></trkpt>
        <trkpt lat="28.0155628" lon="105.6215263"><ele>1067.66</ele><time>2026-05-02T23:49:32.000Z</time></trkpt>
        <trkpt lat="28.0156275" lon="105.6216111"><ele>1066.04</ele><time>2026-05-02T23:49:56.000Z</time></trkpt>
        <trkpt lat="28.0156974" lon="105.6216839"><ele>1064.48</ele><time>2026-05-02T23:50:12.000Z</time></trkpt>
        <trkpt lat="28.0157681" lon="105.6217558"><ele>1063.71</ele><time>2026-05-02T23:50:22.000Z</time></trkpt>
        <trkpt lat="28.0158326" lon="105.6218298"><ele>1063.06</ele><time>2026-05-02T23:50:32.000Z</time></trkpt>
        <trkpt lat="28.015879" lon="105.6219228"><ele>1062.91</ele><time>2026-05-02T23:51:14.000Z</time></trkpt>
        <trkpt lat="28.0159424" lon="105.6220143"><ele>1062.52</ele><time>2026-05-02T23:51:32.000Z</time></trkpt>
        <trkpt lat="28.0160279" lon="105.6220742"><ele>1061.78</ele><time>2026-05-02T23:51:44.000Z</time></trkpt>
        <trkpt lat="28.0161187" lon="105.6221322"><ele>1060.54</ele><time>2026-05-02T23:51:58.000Z</time></trkpt>
        <trkpt lat="28.0162198" lon="105.6221484"><ele>1058.46</ele><time>2026-05-02T23:52:08.000Z</time></trkpt>
        <trkpt lat="28.0163213" lon="105.6221829"><ele>1056.63</ele><time>2026-05-02T23:52:20.000Z</time></trkpt>
        <trkpt lat="28.0164129" lon="105.622218"><ele>1054.85</ele><time>2026-05-02T23:52:30.000Z</time></trkpt>
        <trkpt lat="28.0165054" lon="105.6222738"><ele>1053.58</ele><time>2026-05-02T23:52:44.000Z</time></trkpt>
        <trkpt lat="28.0165959" lon="105.6223137"><ele>1052.21</ele><time>2026-05-02T23:52:58.000Z</time></trkpt>
        <trkpt lat="28.0166819" lon="105.6222953"><ele>1050.7</ele><time>2026-05-02T23:53:08.000Z</time></trkpt>
        <trkpt lat="28.016779" lon="105.6222949"><ele>1049.37</ele><time>2026-05-02T23:53:24.000Z</time></trkpt>
        <trkpt lat="28.0168792" lon="105.6222968"><ele>1048.74</ele><time>2026-05-02T23:53:50.000Z</time></trkpt>
        <trkpt lat="28.0169689" lon="105.6222678"><ele>1050.57</ele><time>2026-05-02T23:54:10.000Z</time></trkpt>
        <trkpt lat="28.0170618" lon="105.6222617"><ele>1053.85</ele><time>2026-05-02T23:54:28.000Z</time></trkpt>
        <trkpt lat="28.0171562" lon="105.6222219"><ele>1058.17</ele><time>2026-05-02T23:55:06.000Z</time></trkpt>
        <trkpt lat="28.0172199" lon="105.6221433"><ele>1063.26</ele><time>2026-05-02T23:55:20.000Z</time></trkpt>
        <trkpt lat="28.0172961" lon="105.6220872"><ele>1066.33</ele><time>2026-05-02T23:56:00.000Z</time></trkpt>
        <trkpt lat="28.0173848" lon="105.6220638"><ele>1070.88</ele><time>2026-05-02T23:56:20.000Z</time></trkpt>
        <trkpt lat="28.0174895" lon="105.6220413"><ele>1073.68</ele><time>2026-05-02T23:57:18.000Z</time></trkpt>
        <trkpt lat="28.0175894" lon="105.6219987"><ele>1073.09</ele><time>2026-05-02T23:57:58.000Z</time></trkpt>
        <trkpt lat="28.017689" lon="105.6219944"><ele>1072.28</ele><time>2026-05-02T23:58:16.000Z</time></trkpt>
        <trkpt lat="28.017775" lon="105.6220467"><ele>1071.51</ele><time>2026-05-02T23:59:24.000Z</time></trkpt>
        <trkpt lat="28.0177983" lon="105.6219483"><ele>1069.05</ele><time>2026-05-02T23:59:36.000Z</time></trkpt>
        <trkpt lat="28.0178936" lon="105.6219445"><ele>1067.14</ele><time>2026-05-03T00:00:26.000Z</time></trkpt>
        <trkpt lat="28.0179926" lon="105.6219368"><ele>1064.54</ele><time>2026-05-03T00:00:38.000Z</time></trkpt>
        <trkpt lat="28.0180918" lon="105.6219221"><ele>1061.43</ele><time>2026-05-03T00:00:56.000Z</time></trkpt>
        <trkpt lat="28.0181876" lon="105.62193"><ele>1055.69</ele><time>2026-05-03T00:01:24.000Z</time></trkpt>
        <trkpt lat="28.0182824" lon="105.621948"><ele>1051.52</ele><time>2026-05-03T00:01:46.000Z</time></trkpt>
        <trkpt lat="28.0183739" lon="105.621953"><ele>1048.37</ele><time>2026-05-03T00:02:06.000Z</time></trkpt>
        <trkpt lat="28.0184704" lon="105.6219556"><ele>1046.02</ele><time>2026-05-03T00:02:38.000Z</time></trkpt>
        <trkpt lat="28.0185687" lon="105.6219573"><ele>1043.82</ele><time>2026-05-03T00:02:52.000Z</time></trkpt>
        <trkpt lat="28.018665" lon="105.6219826"><ele>1041.49</ele><time>2026-05-03T00:03:04.000Z</time></trkpt>
        <trkpt lat="28.018754" lon="105.622029"><ele>1038.95</ele><time>2026-05-03T00:03:24.000Z</time></trkpt>
        <trkpt lat="28.0188455" lon="105.6220808"><ele>1035.32</ele><time>2026-05-03T00:03:38.000Z</time></trkpt>
        <trkpt lat="28.0189344" lon="105.6221151"><ele>1032.21</ele><time>2026-05-03T00:03:46.000Z</time></trkpt>
        <trkpt lat="28.0190288" lon="105.6221543"><ele>1030.36</ele><time>2026-05-03T00:03:56.000Z</time></trkpt>
        <trkpt lat="28.019114" lon="105.6222119"><ele>1030.55</ele><time>2026-05-03T00:04:10.000Z</time></trkpt>
        <trkpt lat="28.0192033" lon="105.6222473"><ele>1032.25</ele><time>2026-05-03T00:04:22.000Z</time></trkpt>
        <trkpt lat="28.0192981" lon="105.6222747"><ele>1033.47</ele><time>2026-05-03T00:04:32.000Z</time></trkpt>
        <trkpt lat="28.0193937" lon="105.6222874"><ele>1034.65</ele><time>2026-05-03T00:04:44.000Z</time></trkpt>
        <trkpt lat="28.0194806" lon="105.6223205"><ele>1034.8</ele><time>2026-05-03T00:04:56.000Z</time></trkpt>
        <trkpt lat="28.019569" lon="105.6223498"><ele>1034.76</ele><time>2026-05-03T00:05:12.000Z</time></trkpt>
        <trkpt lat="28.0196659" lon="105.6223884"><ele>1034.22</ele><time>2026-05-03T00:05:35.000Z</time></trkpt>
        <trkpt lat="28.0197535" lon="105.6224317"><ele>1032.27</ele><time>2026-05-03T00:05:49.000Z</time></trkpt>
        <trkpt lat="28.0198284" lon="105.6224938"><ele>1028.97</ele><time>2026-05-03T00:06:01.000Z</time></trkpt>
        <trkpt lat="28.0199254" lon="105.6224907"><ele>1026.1</ele><time>2026-05-03T00:06:23.000Z</time></trkpt>
        <trkpt lat="28.0200238" lon="105.6224825"><ele>1024.34</ele><time>2026-05-03T00:06:37.000Z</time></trkpt>
        <trkpt lat="28.0200881" lon="105.6225393"><ele>1021.44</ele><time>2026-05-03T00:06:47.000Z</time></trkpt>
        <trkpt lat="28.0201582" lon="105.6226178"><ele>1018.88</ele><time>2026-05-03T00:07:01.000Z</time></trkpt>
        <trkpt lat="28.0202071" lon="105.6227117"><ele>1015.32</ele><time>2026-05-03T00:07:27.000Z</time></trkpt>
        <trkpt lat="28.0202825" lon="105.6227911"><ele>1015.35</ele><time>2026-05-03T00:07:35.000Z</time></trkpt>
        <trkpt lat="28.0203491" lon="105.6228705"><ele>1014.94</ele><time>2026-05-03T00:07:43.000Z</time></trkpt>
        <trkpt lat="28.0204104" lon="105.6229683"><ele>1014.8</ele><time>2026-05-03T00:07:55.000Z</time></trkpt>
        <trkpt lat="28.02047" lon="105.6230576"><ele>1015.44</ele><time>2026-05-03T00:08:05.000Z</time></trkpt>
        <trkpt lat="28.0205531" lon="105.6231301"><ele>1015.34</ele><time>2026-05-03T00:08:13.000Z</time></trkpt>
        <trkpt lat="28.0206488" lon="105.6231601"><ele>1014.42</ele><time>2026-05-03T00:08:21.000Z</time></trkpt>
        <trkpt lat="28.0207343" lon="105.623203"><ele>1013.21</ele><time>2026-05-03T00:08:35.000Z</time></trkpt>
        <trkpt lat="28.0207946" lon="105.6232784"><ele>1012.73</ele><time>2026-05-03T00:08:49.000Z</time></trkpt>
        <trkpt lat="28.0208544" lon="105.6233614"><ele>1012.76</ele><time>2026-05-03T00:09:13.000Z</time></trkpt>
        <trkpt lat="28.0208965" lon="105.6234584"><ele>1013.55</ele><time>2026-05-03T00:09:31.000Z</time></trkpt>
        <trkpt lat="28.020973" lon="105.6234817"><ele>1013.53</ele><time>2026-05-03T00:09:43.000Z</time></trkpt>
        <trkpt lat="28.0210483" lon="105.6235292"><ele>1012.74</ele><time>2026-05-03T00:10:11.000Z</time></trkpt>
        <trkpt lat="28.0211396" lon="105.6235627"><ele>1010.49</ele><time>2026-05-03T00:10:23.000Z</time></trkpt>
        <trkpt lat="28.0212312" lon="105.6236002"><ele>1008.21</ele><time>2026-05-03T00:10:55.000Z</time></trkpt>
        <trkpt lat="28.0213229" lon="105.6235838"><ele>1008.81</ele><time>2026-05-03T00:11:11.000Z</time></trkpt>
        <trkpt lat="28.0214141" lon="105.6235731"><ele>1009.58</ele><time>2026-05-03T00:11:35.000Z</time></trkpt>
        <trkpt lat="28.0215097" lon="105.6235851"><ele>1010.45</ele><time>2026-05-03T00:11:55.000Z</time></trkpt>
        <trkpt lat="28.0215893" lon="105.6236381"><ele>1011.29</ele><time>2026-05-03T00:12:11.000Z</time></trkpt>
        <trkpt lat="28.0216652" lon="105.6236967"><ele>1012.28</ele><time>2026-05-03T00:12:43.000Z</time></trkpt>
        <trkpt lat="28.0217529" lon="105.6237398"><ele>1013.45</ele><time>2026-05-03T00:12:53.000Z</time></trkpt>
        <trkpt lat="28.0218343" lon="105.6237919"><ele>1014.25</ele><time>2026-05-03T00:13:09.000Z</time></trkpt>
        <trkpt lat="28.0219231" lon="105.6237872"><ele>1016.29</ele><time>2026-05-03T00:13:23.000Z</time></trkpt>
        <trkpt lat="28.022011" lon="105.6238175"><ele>1018.96</ele><time>2026-05-03T00:13:35.000Z</time></trkpt>
        <trkpt lat="28.0220932" lon="105.6238673"><ele>1021.77</ele><time>2026-05-03T00:13:47.000Z</time></trkpt>
        <trkpt lat="28.0221719" lon="105.6239337"><ele>1024.32</ele><time>2026-05-03T00:14:09.000Z</time></trkpt>
        <trkpt lat="28.0222484" lon="105.6240025"><ele>1027.2</ele><time>2026-05-03T00:14:23.000Z</time></trkpt>
        <trkpt lat="28.0223395" lon="105.6240554"><ele>1029.82</ele><time>2026-05-03T00:14:43.000Z</time></trkpt>
        <trkpt lat="28.0224248" lon="105.6241142"><ele>1032.39</ele><time>2026-05-03T00:14:57.000Z</time></trkpt>
        <trkpt lat="28.0225012" lon="105.6241754"><ele>1034.07</ele><time>2026-05-03T00:15:41.000Z</time></trkpt>
        <trkpt lat="28.0225856" lon="105.624161"><ele>1037.14</ele><time>2026-05-03T00:16:23.000Z</time></trkpt>
        <trkpt lat="28.022657" lon="105.6240812"><ele>1038.84</ele><time>2026-05-03T00:16:41.000Z</time></trkpt>
        <trkpt lat="28.0227148" lon="105.6239841"><ele>1039.68</ele><time>2026-05-03T00:16:51.000Z</time></trkpt>
        <trkpt lat="28.02273" lon="105.6238483"><ele>1040.12</ele><time>2026-05-03T00:17:59.000Z</time></trkpt>
        <trkpt lat="28.0227117" lon="105.6237433"><ele>1037.1</ele><time>2026-05-03T00:18:29.000Z</time></trkpt>
        <trkpt lat="28.0227906" lon="105.623706"><ele>1036.58</ele><time>2026-05-03T00:18:53.000Z</time></trkpt>
        <trkpt lat="28.0227801" lon="105.6236228"><ele>1040.03</ele><time>2026-05-03T00:19:15.000Z</time></trkpt>
        <trkpt lat="28.0227483" lon="105.623505"><ele>1046.38</ele><time>2026-05-03T00:20:17.000Z</time></trkpt>
        <trkpt lat="28.022695" lon="105.62342"><ele>1044.5</ele><time>2026-05-03T00:20:34.000Z</time></trkpt>
        <trkpt lat="28.0226671" lon="105.6233138"><ele>1042.43</ele><time>2026-05-03T00:20:46.000Z</time></trkpt>
        <trkpt lat="28.0226269" lon="105.6232027"><ele>1042.33</ele><time>2026-05-03T00:20:58.000Z</time></trkpt>
        <trkpt lat="28.0226194" lon="105.6230848"><ele>1043.05</ele><time>2026-05-03T00:21:08.000Z</time></trkpt>
        <trkpt lat="28.0226274" lon="105.6229662"><ele>1042.81</ele><time>2026-05-03T00:21:20.000Z</time></trkpt>
        <trkpt lat="28.022627" lon="105.6228518"><ele>1041.95</ele><time>2026-05-03T00:21:30.000Z</time></trkpt>
        <trkpt lat="28.0226255" lon="105.6227344"><ele>1041.32</ele><time>2026-05-03T00:21:42.000Z</time></trkpt>
        <trkpt lat="28.0226155" lon="105.6226284"><ele>1041.14</ele><time>2026-05-03T00:21:52.000Z</time></trkpt>
        <trkpt lat="28.0226035" lon="105.6225156"><ele>1040.69</ele><time>2026-05-03T00:22:04.000Z</time></trkpt>
        <trkpt lat="28.0226211" lon="105.6223997"><ele>1040.35</ele><time>2026-05-03T00:22:16.000Z</time></trkpt>
        <trkpt lat="28.0226612" lon="105.6223002"><ele>1039.6</ele><time>2026-05-03T00:22:34.000Z</time></trkpt>
        <trkpt lat="28.022718" lon="105.6222046"><ele>1039.38</ele><time>2026-05-03T00:22:58.000Z</time></trkpt>
        <trkpt lat="28.0227815" lon="105.622117"><ele>1038.57</ele><time>2026-05-03T00:23:20.000Z</time></trkpt>
        <trkpt lat="28.0228541" lon="105.6220443"><ele>1037.55</ele><time>2026-05-03T00:23:30.000Z</time></trkpt>
        <trkpt lat="28.0229399" lon="105.62199"><ele>1036.88</ele><time>2026-05-03T00:23:40.000Z</time></trkpt>
        <trkpt lat="28.0229079" lon="105.6219324"><ele>1036.89</ele><time>2026-05-03T00:24:04.000Z</time></trkpt>
        <trkpt lat="28.0228214" lon="105.6218658"><ele>1037.07</ele><time>2026-05-03T00:24:18.000Z</time></trkpt>
        <trkpt lat="28.0227244" lon="105.6218038"><ele>1036.95</ele><time>2026-05-03T00:24:30.000Z</time></trkpt>
        <trkpt lat="28.0226409" lon="105.6217325"><ele>1037.06</ele><time>2026-05-03T00:24:44.000Z</time></trkpt>
        <trkpt lat="28.0225737" lon="105.6216425"><ele>1037.72</ele><time>2026-05-03T00:25:10.000Z</time></trkpt>
        <trkpt lat="28.0225123" lon="105.6215574"><ele>1038.14</ele><time>2026-05-03T00:25:24.000Z</time></trkpt>
        <trkpt lat="28.0224429" lon="105.6214878"><ele>1039.03</ele><time>2026-05-03T00:25:38.000Z</time></trkpt>
        <trkpt lat="28.0223576" lon="105.6214318"><ele>1040.48</ele><time>2026-05-03T00:25:54.000Z</time></trkpt>
        <trkpt lat="28.0222654" lon="105.6214064"><ele>1041.82</ele><time>2026-05-03T00:26:18.000Z</time></trkpt>
        <trkpt lat="28.0221792" lon="105.6213598"><ele>1042.5</ele><time>2026-05-03T00:26:34.000Z</time></trkpt>
        <trkpt lat="28.0221137" lon="105.6212756"><ele>1043.45</ele><time>2026-05-03T00:26:48.000Z</time></trkpt>
        <trkpt lat="28.0220357" lon="105.6212078"><ele>1044.11</ele><time>2026-05-03T00:27:00.000Z</time></trkpt>
        <trkpt lat="28.021961" lon="105.6211404"><ele>1044.58</ele><time>2026-05-03T00:27:18.000Z</time></trkpt>
        <trkpt lat="28.021885" lon="105.621081"><ele>1045.49</ele><time>2026-05-03T00:27:30.000Z</time></trkpt>
        <trkpt lat="28.0218286" lon="105.6209981"><ele>1045.19</ele><time>2026-05-03T00:27:42.000Z</time></trkpt>
        <trkpt lat="28.021788" lon="105.6208926"><ele>1044.9</ele><time>2026-05-03T00:27:56.000Z</time></trkpt>
        <trkpt lat="28.0217472" lon="105.6207911"><ele>1046.19</ele><time>2026-05-03T00:28:10.000Z</time></trkpt>
        <trkpt lat="28.0217373" lon="105.6206817"><ele>1047.96</ele><time>2026-05-03T00:28:46.000Z</time></trkpt>
        <trkpt lat="28.0217644" lon="105.6205751"><ele>1050.04</ele><time>2026-05-03T00:28:58.000Z</time></trkpt>
        <trkpt lat="28.0218017" lon="105.620465"><ele>1051.74</ele><time>2026-05-03T00:30:22.000Z</time></trkpt>
        <trkpt lat="28.0217667" lon="105.6203567"><ele>1054.95</ele><time>2026-05-03T00:30:40.000Z</time></trkpt>
        <trkpt lat="28.0217641" lon="105.6202427"><ele>1057.64</ele><time>2026-05-03T00:30:54.000Z</time></trkpt>
        <trkpt lat="28.0217197" lon="105.6201457"><ele>1059.82</ele><time>2026-05-03T00:31:10.000Z</time></trkpt>
        <trkpt lat="28.0216761" lon="105.6200465"><ele>1061.92</ele><time>2026-05-03T00:31:48.000Z</time></trkpt>
        <trkpt lat="28.0216112" lon="105.6199661"><ele>1063.29</ele><time>2026-05-03T00:32:08.000Z</time></trkpt>
        <trkpt lat="28.0215328" lon="105.6199048"><ele>1064.63</ele><time>2026-05-03T00:32:20.000Z</time></trkpt>
        <trkpt lat="28.0214812" lon="105.6198231"><ele>1065.65</ele><time>2026-05-03T00:32:56.000Z</time></trkpt>
        <trkpt lat="28.0214309" lon="105.6197221"><ele>1067.56</ele><time>2026-05-03T00:33:08.000Z</time></trkpt>
        <trkpt lat="28.0213529" lon="105.619677"><ele>1069.13</ele><time>2026-05-03T00:33:22.000Z</time></trkpt>
        <trkpt lat="28.0212981" lon="105.6195958"><ele>1071.09</ele><time>2026-05-03T00:33:38.000Z</time></trkpt>
        <trkpt lat="28.0212883" lon="105.6194953"><ele>1073.12</ele><time>2026-05-03T00:34:36.000Z</time></trkpt>
        <trkpt lat="28.0213317" lon="105.6193867"><ele>1076.12</ele><time>2026-05-03T00:36:36.000Z</time></trkpt>
        <trkpt lat="28.0212717" lon="105.619295"><ele>1078.65</ele><time>2026-05-03T00:44:27.000Z</time></trkpt>
        <trkpt lat="28.021235" lon="105.6191883"><ele>1084.61</ele><time>2026-05-03T00:45:53.000Z</time></trkpt>
        <trkpt lat="28.02122" lon="105.6190817"><ele>1086.5</ele><time>2026-05-03T00:47:21.000Z</time></trkpt>
        <trkpt lat="28.0212283" lon="105.61898"><ele>1087.57</ele><time>2026-05-03T00:47:31.000Z</time></trkpt>
        <trkpt lat="28.0211901" lon="105.6188812"><ele>1088.66</ele><time>2026-05-03T00:47:47.000Z</time></trkpt>
        <trkpt lat="28.021244" lon="105.6188188"><ele>1089.32</ele><time>2026-05-03T00:48:31.000Z</time></trkpt>
        <trkpt lat="28.021329" lon="105.6188331"><ele>1090.73</ele><time>2026-05-03T00:49:13.000Z</time></trkpt>
        <trkpt lat="28.0214218" lon="105.6188889"><ele>1091.88</ele><time>2026-05-03T00:49:31.000Z</time></trkpt>
        <trkpt lat="28.0215277" lon="105.6189188"><ele>1092.92</ele><time>2026-05-03T00:49:47.000Z</time></trkpt>
        <trkpt lat="28.0216072" lon="105.6188714"><ele>1094.76</ele><time>2026-05-03T00:49:59.000Z</time></trkpt>
        <trkpt lat="28.0216538" lon="105.6187819"><ele>1096.46</ele><time>2026-05-03T00:50:13.000Z</time></trkpt>
        <trkpt lat="28.0216648" lon="105.6186744"><ele>1097.64</ele><time>2026-05-03T00:50:33.000Z</time></trkpt>
        <trkpt lat="28.0216361" lon="105.6185694"><ele>1099.43</ele><time>2026-05-03T00:50:47.000Z</time></trkpt>
        <trkpt lat="28.0216047" lon="105.6184599"><ele>1101.44</ele><time>2026-05-03T00:51:01.000Z</time></trkpt>
        <trkpt lat="28.021596" lon="105.6183464"><ele>1103.4</ele><time>2026-05-03T00:51:23.000Z</time></trkpt>
        <trkpt lat="28.0216479" lon="105.6182452"><ele>1104.91</ele><time>2026-05-03T00:51:47.000Z</time></trkpt>
        <trkpt lat="28.0217144" lon="105.6181642"><ele>1106.71</ele><time>2026-05-03T00:51:59.000Z</time></trkpt>
        <trkpt lat="28.021779" lon="105.6180803"><ele>1107.48</ele><time>2026-05-03T00:52:11.000Z</time></trkpt>
        <trkpt lat="28.0218316" lon="105.6179904"><ele>1107.88</ele><time>2026-05-03T00:52:29.000Z</time></trkpt>
        <trkpt lat="28.0218572" lon="105.6178878"><ele>1108.62</ele><time>2026-05-03T00:52:41.000Z</time></trkpt>
        <trkpt lat="28.0218517" lon="105.6177718"><ele>1109.51</ele><time>2026-05-03T00:52:55.000Z</time></trkpt>
        <trkpt lat="28.0218287" lon="105.6176604"><ele>1110.76</ele><time>2026-05-03T00:53:07.000Z</time></trkpt>
        <trkpt lat="28.0217719" lon="105.6175669"><ele>1112.06</ele><time>2026-05-03T00:53:17.000Z</time></trkpt>
        <trkpt lat="28.0216848" lon="105.6175215"><ele>1113.76</ele><time>2026-05-03T00:53:35.000Z</time></trkpt>
        <trkpt lat="28.0215886" lon="105.6174754"><ele>1115.67</ele><time>2026-05-03T00:53:49.000Z</time></trkpt>
        <trkpt lat="28.0214985" lon="105.6174185"><ele>1117.53</ele><time>2026-05-03T00:54:05.000Z</time></trkpt>
        <trkpt lat="28.0214304" lon="105.617346"><ele>1119.71</ele><time>2026-05-03T00:54:21.000Z</time></trkpt>
        <trkpt lat="28.0213588" lon="105.6172626"><ele>1121.64</ele><time>2026-05-03T00:54:35.000Z</time></trkpt>
        <trkpt lat="28.0212738" lon="105.6172297"><ele>1123.65</ele><time>2026-05-03T00:54:53.000Z</time></trkpt>
        <trkpt lat="28.0211787" lon="105.6172389"><ele>1123.93</ele><time>2026-05-03T00:55:05.000Z</time></trkpt>
        <trkpt lat="28.0210805" lon="105.6172361"><ele>1124.9</ele><time>2026-05-03T00:55:17.000Z</time></trkpt>
        <trkpt lat="28.0210084" lon="105.6171766"><ele>1125.76</ele><time>2026-05-03T00:55:29.000Z</time></trkpt>
        <trkpt lat="28.0209815" lon="105.6170801"><ele>1126.25</ele><time>2026-05-03T00:55:41.000Z</time></trkpt>
        <trkpt lat="28.0209976" lon="105.6169727"><ele>1126.53</ele><time>2026-05-03T00:55:57.000Z</time></trkpt>
        <trkpt lat="28.0210201" lon="105.6168607"><ele>1127.29</ele><time>2026-05-03T00:56:17.000Z</time></trkpt>
        <trkpt lat="28.0210134" lon="105.6167508"><ele>1129.15</ele><time>2026-05-03T00:56:31.000Z</time></trkpt>
        <trkpt lat="28.0209535" lon="105.6166757"><ele>1130.89</ele><time>2026-05-03T00:57:21.000Z</time></trkpt>
        <trkpt lat="28.0209146" lon="105.6165814"><ele>1132.66</ele><time>2026-05-03T00:57:37.000Z</time></trkpt>
        <trkpt lat="28.0209164" lon="105.6164748"><ele>1133.75</ele><time>2026-05-03T00:57:49.000Z</time></trkpt>
        <trkpt lat="28.0209473" lon="105.6163727"><ele>1134.76</ele><time>2026-05-03T00:58:05.000Z</time></trkpt>
        <trkpt lat="28.0209507" lon="105.6162643"><ele>1136.33</ele><time>2026-05-03T00:58:19.000Z</time></trkpt>
        <trkpt lat="28.0209037" lon="105.6161776"><ele>1137.91</ele><time>2026-05-03T00:58:33.000Z</time></trkpt>
        <trkpt lat="28.0208184" lon="105.616123"><ele>1139.5</ele><time>2026-05-03T00:58:47.000Z</time></trkpt>
        <trkpt lat="28.0207156" lon="105.6161305"><ele>1141.18</ele><time>2026-05-03T00:59:01.000Z</time></trkpt>
        <trkpt lat="28.0206051" lon="105.6161422"><ele>1142.52</ele><time>2026-05-03T00:59:15.000Z</time></trkpt>
        <trkpt lat="28.0205346" lon="105.6160832"><ele>1143.59</ele><time>2026-05-03T00:59:29.000Z</time></trkpt>
        <trkpt lat="28.0205108" lon="105.6159756"><ele>1145.05</ele><time>2026-05-03T00:59:43.000Z</time></trkpt>
        <trkpt lat="28.0204992" lon="105.6158615"><ele>1145.42</ele><time>2026-05-03T00:59:55.000Z</time></trkpt>
        <trkpt lat="28.0204562" lon="105.6157666"><ele>1145.93</ele><time>2026-05-03T01:00:07.000Z</time></trkpt>
        <trkpt lat="28.0203969" lon="105.6156823"><ele>1146.22</ele><time>2026-05-03T01:00:19.000Z</time></trkpt>
        <trkpt lat="28.0203321" lon="105.6155959"><ele>1146.9</ele><time>2026-05-03T01:00:33.000Z</time></trkpt>
        <trkpt lat="28.0202515" lon="105.6155459"><ele>1147.54</ele><time>2026-05-03T01:00:45.000Z</time></trkpt>
        <trkpt lat="28.0201584" lon="105.6155616"><ele>1148</ele><time>2026-05-03T01:00:57.000Z</time></trkpt>
        <trkpt lat="28.0200559" lon="105.6155743"><ele>1149.29</ele><time>2026-05-03T01:01:11.000Z</time></trkpt>
        <trkpt lat="28.0199702" lon="105.6155348"><ele>1150.54</ele><time>2026-05-03T01:01:23.000Z</time></trkpt>
        <trkpt lat="28.019898" lon="105.6154677"><ele>1151.34</ele><time>2026-05-03T01:01:35.000Z</time></trkpt>
        <trkpt lat="28.0198456" lon="105.6153746"><ele>1152.05</ele><time>2026-05-03T01:01:51.000Z</time></trkpt>
        <trkpt lat="28.0198059" lon="105.6152743"><ele>1151.3</ele><time>2026-05-03T01:02:09.000Z</time></trkpt>
        <trkpt lat="28.0197641" lon="105.6151729"><ele>1150.78</ele><time>2026-05-03T01:02:23.000Z</time></trkpt>
        <trkpt lat="28.0197089" lon="105.6150841"><ele>1150.27</ele><time>2026-05-03T01:02:39.000Z</time></trkpt>
        <trkpt lat="28.0196268" lon="105.6150573"><ele>1150.67</ele><time>2026-05-03T01:02:55.000Z</time></trkpt>
        <trkpt lat="28.0195615" lon="105.6151232"><ele>1152.19</ele><time>2026-05-03T01:03:09.000Z</time></trkpt>
        <trkpt lat="28.0195353" lon="105.6152345"><ele>1153.66</ele><time>2026-05-03T01:03:25.000Z</time></trkpt>
        <trkpt lat="28.0195146" lon="105.6153617"><ele>1154.84</ele><time>2026-05-03T01:03:39.000Z</time></trkpt>
        <trkpt lat="28.0194975" lon="105.6154835"><ele>1156.37</ele><time>2026-05-03T01:03:51.000Z</time></trkpt>
        <trkpt lat="28.0194803" lon="105.6155955"><ele>1157.5</ele><time>2026-05-03T01:04:03.000Z</time></trkpt>
        <trkpt lat="28.0194671" lon="105.6157095"><ele>1158.58</ele><time>2026-05-03T01:04:17.000Z</time></trkpt>
        <trkpt lat="28.0194485" lon="105.6158175"><ele>1159.92</ele><time>2026-05-03T01:04:29.000Z</time></trkpt>
        <trkpt lat="28.0194351" lon="105.6159204"><ele>1160.73</ele><time>2026-05-03T01:04:41.000Z</time></trkpt>
        <trkpt lat="28.019411" lon="105.6160204"><ele>1161.71</ele><time>2026-05-03T01:04:51.000Z</time></trkpt>
        <trkpt lat="28.0193916" lon="105.6161285"><ele>1162.39</ele><time>2026-05-03T01:05:03.000Z</time></trkpt>
        <trkpt lat="28.0193642" lon="105.6162297"><ele>1163.77</ele><time>2026-05-03T01:05:23.000Z</time></trkpt>
        <trkpt lat="28.0192902" lon="105.6162156"><ele>1165.33</ele><time>2026-05-03T01:05:51.000Z</time></trkpt>
        <trkpt lat="28.0192483" lon="105.6161157"><ele>1167</ele><time>2026-05-03T01:06:09.000Z</time></trkpt>
        <trkpt lat="28.019271" lon="105.6159972"><ele>1168.16</ele><time>2026-05-03T01:06:23.000Z</time></trkpt>
        <trkpt lat="28.0192971" lon="105.6158775"><ele>1168.95</ele><time>2026-05-03T01:06:37.000Z</time></trkpt>
        <trkpt lat="28.0193031" lon="105.6157639"><ele>1170.69</ele><time>2026-05-03T01:06:51.000Z</time></trkpt>
        <trkpt lat="28.0192784" lon="105.6156605"><ele>1172.5</ele><time>2026-05-03T01:07:11.000Z</time></trkpt>
        <trkpt lat="28.0192825" lon="105.6155582"><ele>1175.25</ele><time>2026-05-03T01:07:21.000Z</time></trkpt>
        <trkpt lat="28.019295" lon="105.6154477"><ele>1176.87</ele><time>2026-05-03T01:07:31.000Z</time></trkpt>
        <trkpt lat="28.0193049" lon="105.6153316"><ele>1177.31</ele><time>2026-05-03T01:07:43.000Z</time></trkpt>
        <trkpt lat="28.0193142" lon="105.6152252"><ele>1177.65</ele><time>2026-05-03T01:07:53.000Z</time></trkpt>
        <trkpt lat="28.019293" lon="105.6151179"><ele>1178.06</ele><time>2026-05-03T01:08:07.000Z</time></trkpt>
        <trkpt lat="28.0192505" lon="105.6150225"><ele>1179.02</ele><time>2026-05-03T01:08:19.000Z</time></trkpt>
        <trkpt lat="28.0192156" lon="105.6149201"><ele>1180.39</ele><time>2026-05-03T01:08:31.000Z</time></trkpt>
        <trkpt lat="28.0191755" lon="105.6148107"><ele>1182.03</ele><time>2026-05-03T01:08:43.000Z</time></trkpt>
        <trkpt lat="28.0191416" lon="105.6147"><ele>1183.39</ele><time>2026-05-03T01:09:07.000Z</time></trkpt>
        <trkpt lat="28.0191445" lon="105.6145943"><ele>1184.08</ele><time>2026-05-03T01:09:19.000Z</time></trkpt>
        <trkpt lat="28.0191633" lon="105.6144793"><ele>1184.05</ele><time>2026-05-03T01:09:31.000Z</time></trkpt>
        <trkpt lat="28.0191783" lon="105.6143596"><ele>1184.63</ele><time>2026-05-03T01:09:43.000Z</time></trkpt>
        <trkpt lat="28.0192126" lon="105.6142524"><ele>1184.96</ele><time>2026-05-03T01:09:55.000Z</time></trkpt>
        <trkpt lat="28.0192707" lon="105.6141553"><ele>1185.41</ele><time>2026-05-03T01:10:07.000Z</time></trkpt>
        <trkpt lat="28.0193585" lon="105.6140815"><ele>1187.25</ele><time>2026-05-03T01:10:41.000Z</time></trkpt>
        <trkpt lat="28.0194087" lon="105.6139828"><ele>1192.52</ele><time>2026-05-03T01:10:49.000Z</time></trkpt>
        <trkpt lat="28.0194574" lon="105.6138934"><ele>1196.08</ele><time>2026-05-03T01:10:57.000Z</time></trkpt>
        <trkpt lat="28.0194574" lon="105.6138934"><ele>1196.08</ele><time>2026-05-03T01:10:59.000Z</time></trkpt>
      </trkseg>
  </trk>
</gpx>